Elk Lake, Canada
Current Conditions -  °F | °C
As of 1:00 PM on Thursday 18 Dec 2014 (Local Time) from CYXR Reporting Station
Clear Clear  
Wind Chill: -4°   Ceiling: Unl
Heat Index: 10°   Visibility: 9mi
Dew Point:   Wind: 12mph
Humidity: 85%   Direction: 300°WNW
Pressure: 30.15"   Gusts: NA
Location:  47.72°N, 80.33°W
Report Text: CYXR 181800Z AUTO 30010KT 9SM CLR M12/M14 A3015 RMK SLP231
Loading
Personal Weather Stations






























Interactive Weather Map New forecast layout! Learn more

10-Day Weather Forecast

Advertisements
Track Severe Weather on mobile